Time;durP1;ratioP1;P1;durP2;ratioP2;P2;SDS_P1;SDS_P2;PMS_P1;PMS_P2;Temp;Humidity;BMP_temperature;BMP_pressure;BME280_temperature;BME280_humidity;BME280_pressure;Samples;Min_cycle;Max_cycle;Signal;HPM_P1;HPM_P2
2022/11/05 00:09:31;;;;;;;444.10;401.08;;;;;;;;;;4954515;28;20399;-76
2022/11/05 00:17:39;;;;;;;436.67;393.60;;;;;;;;;;4970031;28;20436;-76
2022/11/05 00:20:06;;;;;;;444.13;399.37;;;;;;;;;;4954531;28;20413;-76
2022/11/05 00:25:17;;;;;;;443.02;399.85;;;;;;;;;;4952195;28;20809;-76
2022/11/05 00:27:47;;;;;;;436.73;393.58;;;;;;;;;;4967019;28;20410;-76
2022/11/05 00:30:16;;;;;;;436.70;393.65;;;;;;;;;;4952422;28;21033;-76
2022/11/05 00:32:43;;;;;;;434.57;391.77;;;;;;;;;;4953342;28;20421;-76
2022/11/05 00:35:09;;;;;;;436.00;392.88;;;;;;;;;;4967648;28;20494;-76
2022/11/05 00:37:35;;;;;;;434.23;391.52;;;;;;;;;;4967405;28;20432;-77
2022/11/05 00:40:02;;;;;;;432.45;390.08;;;;;;;;;;4951387;28;20416;-76
2022/11/05 00:45:12;;;;;;;433.23;389.25;;;;;;;;;;4952540;28;20408;-76
2022/11/05 00:50:24;;;;;;;431.75;388.83;;;;;;;;;;4968372;28;20421;-76
2022/11/05 00:52:59;;;;;;;430.45;387.13;;;;;;;;;;4967955;28;20905;-77
2022/11/05 00:55:28;;;;;;;428.05;385.40;;;;;;;;;;4967548;28;20441;-76
2022/11/05 00:57:54;;;;;;;427.33;384.73;;;;;;;;;;4952153;28;20414;-76
2022/11/05 01:00:22;;;;;;;426.98;383.92;;;;;;;;;;4967164;28;20440;-76
2022/11/05 01:02:48;;;;;;;423.00;380.63;;;;;;;;;;4967706;28;20825;-76
2022/11/05 01:05:14;;;;;;;422.52;379.70;;;;;;;;;;4952570;28;20410;-76
2022/11/05 01:07:41;;;;;;;418.92;376.58;;;;;;;;;;4967171;28;20461;-76
2022/11/05 01:10:07;;;;;;;418.50;376.70;;;;;;;;;;4952650;28;20418;-75
2022/11/05 01:12:33;;;;;;;419.63;377.33;;;;;;;;;;4952965;28;20423;-77
2022/11/05 01:15:00;;;;;;;419.67;377.70;;;;;;;;;;4967123;28;20430;-76
2022/11/05 01:17:26;;;;;;;425.50;383.13;;;;;;;;;;4952172;28;20414;-75
2022/11/05 01:19:52;;;;;;;416.05;374.63;;;;;;;;;;4952336;28;20414;-77
2022/11/05 01:22:18;;;;;;;414.67;376.67;;;;;;;;;;4951827;28;20438;-77
2022/11/05 01:24:44;;;;;;;421.58;380.25;;;;;;;;;;4967712;28;20422;-76
2022/11/05 01:27:10;;;;;;;424.95;382.73;;;;;;;;;;4952053;28;20433;-76
2022/11/05 01:29:36;;;;;;;411.58;374.08;;;;;;;;;;4951924;28;20889;-76
2022/11/05 01:32:03;;;;;;;408.35;371.45;;;;;;;;;;4966528;28;20418;-77
2022/11/05 01:34:29;;;;;;;413.25;375.55;;;;;;;;;;4952461;28;20430;-75
2022/11/05 01:36:55;;;;;;;415.15;376.75;;;;;;;;;;4951968;28;20546;-76
2022/11/05 01:39:21;;;;;;;416.05;377.92;;;;;;;;;;4966686;28;20418;-75
2022/11/05 01:41:47;;;;;;;411.23;372.92;;;;;;;;;;4952646;28;20417;-76
2022/11/05 01:44:32;;;;;;;418.33;379.48;;;;;;;;;;4951721;28;20497;-76
2022/11/05 01:46:58;;;;;;;409.80;372.17;;;;;;;;;;4952085;28;20868;-76
2022/11/05 01:49:31;;;;;;;422.55;379.08;;;;;;;;;;4950844;28;20928;-76
2022/11/05 01:51:59;;;;;;;414.40;372.27;;;;;;;;;;4952212;28;20492;-76
2022/11/05 01:54:28;;;;;;;412.42;373.55;;;;;;;;;;4951759;28;20426;-76
2022/11/05 01:56:55;;;;;;;406.55;368.35;;;;;;;;;;4951668;28;20980;-76
2022/11/05 01:59:24;;;;;;;407.42;369.00;;;;;;;;;;4965989;28;20486;-76
2022/11/05 02:01:50;;;;;;;405.13;367.58;;;;;;;;;;4951451;28;20762;-76
2022/11/05 02:04:23;;;;;;;413.55;373.95;;;;;;;;;;4966456;28;20901;-76
2022/11/05 02:06:49;;;;;;;405.05;367.70;;;;;;;;;;4966721;28;20410;-77
2022/11/05 02:09:20;;;;;;;406.48;368.55;;;;;;;;;;4951233;28;20972;-75
2022/11/05 02:11:47;;;;;;;400.17;363.33;;;;;;;;;;4951990;28;20441;-76
2022/11/05 02:14:13;;;;;;;403.38;365.98;;;;;;;;;;4950881;28;20528;-77
2022/11/05 02:16:52;;;;;;;402.98;364.98;;;;;;;;;;4951414;28;20894;-76
2022/11/05 02:19:18;;;;;;;405.10;368.02;;;;;;;;;;4965858;28;20513;-76
2022/11/05 02:21:47;;;;;;;401.10;363.95;;;;;;;;;;4951613;28;20460;-76
2022/11/05 02:24:32;;;;;;;408.50;367.08;;;;;;;;;;4950832;28;20413;-76
2022/11/05 02:27:01;;;;;;;404.13;363.77;;;;;;;;;;4966763;28;20936;-76
2022/11/05 02:29:33;;;;;;;407.53;366.53;;;;;;;;;;4966571;28;20613;-75
2022/11/05 02:32:11;;;;;;;406.52;365.67;;;;;;;;;;4951263;28;20418;-76
2022/11/05 02:34:47;;;;;;;410.00;368.75;;;;;;;;;;4951469;28;20916;-76
2022/11/05 02:37:16;;;;;;;401.55;363.88;;;;;;;;;;4966282;28;20817;-76
2022/11/05 02:39:57;;;;;;;397.13;359.85;;;;;;;;;;4951577;28;20909;-76
2022/11/05 02:42:34;;;;;;;401.90;364.70;;;;;;;;;;4951421;28;20473;-76
2022/11/05 02:45:05;;;;;;;398.92;362.15;;;;;;;;;;4951384;28;20445;-77
2022/11/05 02:47:50;;;;;;;401.63;364.17;;;;;;;;;;4951064;28;20413;-76
2022/11/05 02:50:19;;;;;;;400.07;362.97;;;;;;;;;;4951342;28;20406;-77
2022/11/05 02:52:48;;;;;;;400.65;363.65;;;;;;;;;;4951070;28;20406;-76
2022/11/05 02:55:18;;;;;;;403.20;365.35;;;;;;;;;;4965734;28;20512;-76
2022/11/05 02:57:46;;;;;;;402.25;364.65;;;;;;;;;;4966496;28;20721;-76
2022/11/05 03:00:30;;;;;;;403.00;365.42;;;;;;;;;;4950518;28;20414;-76
2022/11/05 03:02:56;;;;;;;402.92;366.02;;;;;;;;;;4966201;28;20425;-76
2022/11/05 03:05:28;;;;;;;404.02;366.88;;;;;;;;;;4965578;28;20762;-76
2022/11/05 03:07:58;;;;;;;402.00;364.63;;;;;;;;;;4951312;28;20402;-77
2022/11/05 03:10:30;;;;;;;402.88;365.25;;;;;;;;;;4966008;28;20948;-76
2022/11/05 03:13:03;;;;;;;400.90;363.40;;;;;;;;;;4969513;28;20449;-77
2022/11/05 03:15:47;;;;;;;403.50;366.05;;;;;;;;;;4968726;28;20928;-75
2022/11/05 03:18:32;;;;;;;391.77;356.55;;;;;;;;;;4969718;28;20429;-75
2022/11/05 03:21:13;;;;;;;399.02;362.05;;;;;;;;;;4969683;28;20469;-75
2022/11/05 03:23:42;;;;;;;400.63;363.23;;;;;;;;;;4969076;28;20426;-75
2022/11/05 03:26:16;;;;;;;393.92;357.95;;;;;;;;;;4954428;28;20757;-76
2022/11/05 03:28:44;;;;;;;395.77;359.52;;;;;;;;;;4969719;28;20785;-75
2022/11/05 03:31:11;;;;;;;396.25;359.58;;;;;;;;;;4968915;28;20750;-76
2022/11/05 03:33:39;;;;;;;401.88;364.25;;;;;;;;;;4953930;28;20429;-77
2022/11/05 03:36:07;;;;;;;404.10;364.15;;;;;;;;;;4954768;28;20426;-76
2022/11/05 03:38:36;;;;;;;406.27;365.38;;;;;;;;;;4953938;28;20920;-75
2022/11/05 03:41:07;;;;;;;409.77;368.50;;;;;;;;;;4954381;28;20607;-75
2022/11/05 03:43:37;;;;;;;407.88;367.50;;;;;;;;;;4954429;28;20505;-75
2022/11/05 03:46:24;;;;;;;406.17;366.25;;;;;;;;;;4968936;28;20453;-75
2022/11/05 03:48:51;;;;;;;408.58;367.45;;;;;;;;;;4952537;29;20567;-75
2022/11/05 03:51:32;;;;;;;405.05;367.55;;;;;;;;;;4954178;28;20417;-75
2022/11/05 03:54:00;;;;;;;409.10;370.08;;;;;;;;;;4955031;28;20422;-75
2022/11/05 03:56:26;;;;;;;410.02;370.73;;;;;;;;;;4969801;28;20421;-75
2022/11/05 03:58:53;;;;;;;414.95;375.95;;;;;;;;;;4969119;28;20425;-77
2022/11/05 04:01:19;;;;;;;414.15;372.48;;;;;;;;;;4954520;28;20413;-75
2022/11/05 04:03:45;;;;;;;415.35;373.83;;;;;;;;;;4955084;28;20438;-75
2022/11/05 04:14:25;;;;;;;415.65;375.30;;;;;;;;;;4969358;28;20445;-75
2022/11/05 04:17:10;;;;;;;382.27;349.65;;;;;;;;;;4954862;28;20410;-76
2022/11/05 04:25:18;;;;;;;422.23;380.88;;;;;;;;;;4952728;29;20872;-75
2022/11/05 04:27:44;;;;;;;432.25;389.25;;;;;;;;;;4967934;28;20449;-76
2022/11/05 04:30:17;;;;;;;424.50;383.80;;;;;;;;;;4968034;28;20496;-75
2022/11/05 04:33:03;;;;;;;425.85;384.65;;;;;;;;;;4953546;28;20430;-75
2022/11/05 04:35:48;;;;;;;421.80;381.40;;;;;;;;;;4952182;28;20438;-75
2022/11/05 04:38:15;;;;;;;424.00;382.35;;;;;;;;;;4968120;28;20508;-75
2022/11/05 04:40:42;;;;;;;423.20;381.88;;;;;;;;;;4952633;28;20501;-76
2022/11/05 04:43:08;;;;;;;420.63;380.33;;;;;;;;;;4953345;28;20421;-75
2022/11/05 04:45:35;;;;;;;422.65;380.92;;;;;;;;;;4953090;28;20505;-75
2022/11/05 04:48:02;;;;;;;419.00;377.27;;;;;;;;;;4952819;28;20429;-75
2022/11/05 04:50:28;;;;;;;426.27;384.48;;;;;;;;;;4952454;28;20410;-75
2022/11/05 04:52:54;;;;;;;420.13;378.00;;;;;;;;;;4952741;28;20505;-76
2022/11/05 04:55:20;;;;;;;421.83;379.98;;;;;;;;;;4952208;28;20484;-76
2022/11/05 04:57:48;;;;;;;424.15;381.58;;;;;;;;;;4953027;28;20418;-75
2022/11/05 05:00:14;;;;;;;420.85;379.75;;;;;;;;;;4952870;28;20492;-75
2022/11/05 05:02:43;;;;;;;423.15;380.55;;;;;;;;;;4952649;28;20414;-75
2022/11/05 05:05:10;;;;;;;418.95;377.25;;;;;;;;;;4967696;28;20414;-75
2022/11/05 05:07:36;;;;;;;419.13;377.92;;;;;;;;;;4952259;28;20414;-75
2022/11/05 05:10:03;;;;;;;421.08;378.30;;;;;;;;;;4952174;28;20410;-75
2022/11/05 05:12:29;;;;;;;419.85;377.95;;;;;;;;;;4952383;28;20418;-75
2022/11/05 05:14:55;;;;;;;417.60;375.85;;;;;;;;;;4967648;28;20437;-75
2022/11/05 05:17:21;;;;;;;417.33;376.73;;;;;;;;;;4952312;28;20429;-76
2022/11/05 05:22:32;;;;;;;417.67;376.50;;;;;;;;;;4951839;28;20437;-74
2022/11/05 05:24:58;;;;;;;417.95;376.27;;;;;;;;;;4967467;28;20476;-75
2022/11/05 05:27:28;;;;;;;419.07;378.00;;;;;;;;;;4951633;28;20416;-76
2022/11/05 05:29:54;;;;;;;421.30;379.80;;;;;;;;;;4967420;28;20873;-75
2022/11/05 05:32:20;;;;;;;418.08;377.02;;;;;;;;;;4966723;28;20437;-75
2022/11/05 05:34:46;;;;;;;419.63;378.48;;;;;;;;;;4951366;28;20901;-75
2022/11/05 05:37:12;;;;;;;415.48;374.73;;;;;;;;;;4950944;28;20426;-75
2022/11/05 05:39:38;;;;;;;415.15;374.38;;;;;;;;;;4967204;28;20425;-75
2022/11/05 05:42:04;;;;;;;416.83;375.38;;;;;;;;;;4951600;28;20765;-75
2022/11/05 05:44:30;;;;;;;424.50;382.90;;;;;;;;;;4951594;28;20446;-75
2022/11/05 05:46:56;;;;;;;417.77;376.40;;;;;;;;;;4952429;28;20474;-75
2022/11/05 05:49:22;;;;;;;417.17;376.30;;;;;;;;;;4952434;28;20417;-75
2022/11/05 05:51:49;;;;;;;426.92;384.70;;;;;;;;;;4951524;28;20790;-75
2022/11/05 05:54:15;;;;;;;419.50;378.65;;;;;;;;;;4952008;28;20433;-75
2022/11/05 05:56:45;;;;;;;424.55;383.00;;;;;;;;;;4951553;28;20480;-75
2022/11/05 05:59:11;;;;;;;423.10;381.95;;;;;;;;;;4966612;28;20777;-75
2022/11/05 06:01:37;;;;;;;427.50;385.55;;;;;;;;;;4966260;28;20444;-75
2022/11/05 06:04:03;;;;;;;424.00;382.88;;;;;;;;;;4951460;28;20829;-75
2022/11/05 06:06:29;;;;;;;432.47;391.03;;;;;;;;;;4951732;28;20977;-75
2022/11/05 06:08:55;;;;;;;430.65;388.90;;;;;;;;;;4951632;28;20409;-75
2022/11/05 06:11:22;;;;;;;428.95;387.45;;;;;;;;;;4951697;28;20932;-75
2022/11/05 06:13:48;;;;;;;439.17;396.48;;;;;;;;;;4951011;28;20434;-75
2022/11/05 06:16:14;;;;;;;429.57;388.00;;;;;;;;;;4967531;28;20510;-75
2022/11/05 06:18:41;;;;;;;434.95;391.77;;;;;;;;;;4951473;28;20409;-75
2022/11/05 06:21:08;;;;;;;428.55;386.88;;;;;;;;;;4951767;28;20418;-75
2022/11/05 06:23:35;;;;;;;428.45;386.73;;;;;;;;;;4951176;28;20410;-77
2022/11/05 06:26:02;;;;;;;426.73;384.65;;;;;;;;;;4951407;28;20889;-75
2022/11/05 06:28:28;;;;;;;428.35;386.83;;;;;;;;;;4951692;28;20413;-76
2022/11/05 06:30:54;;;;;;;425.73;387.10;;;;;;;;;;4950929;28;20968;-75
2022/11/05 06:33:20;;;;;;;419.20;381.85;;;;;;;;;;4950940;28;20424;-76
2022/11/05 06:35:46;;;;;;;419.85;381.88;;;;;;;;;;4965511;28;20500;-77
2022/11/05 06:38:12;;;;;;;415.48;377.98;;;;;;;;;;4965932;28;20418;-76
2022/11/05 06:40:38;;;;;;;419.50;381.27;;;;;;;;;;4966032;28;20460;-77
2022/11/05 06:43:05;;;;;;;410.67;373.45;;;;;;;;;;4966903;28;20417;-76
2022/11/05 06:45:31;;;;;;;416.52;377.50;;;;;;;;;;4952136;28;20751;-77
2022/11/05 06:47:57;;;;;;;422.55;383.05;;;;;;;;;;4969641;28;20509;-76
2022/11/05 06:50:24;;;;;;;419.00;379.97;;;;;;;;;;4955380;28;20514;-76
2022/11/05 06:52:57;;;;;;;416.85;378.88;;;;;;;;;;4954622;28;20501;-76
2022/11/05 06:55:23;;;;;;;409.35;371.80;;;;;;;;;;4971135;28;20801;-77
2022/11/05 06:57:49;;;;;;;411.33;373.95;;;;;;;;;;4955893;28;20418;-76
2022/11/05 07:00:16;;;;;;;403.35;367.15;;;;;;;;;;4970700;28;20422;-77
2022/11/05 07:02:42;;;;;;;411.17;373.75;;;;;;;;;;4968130;28;20909;-77
2022/11/05 07:05:10;;;;;;;405.27;368.55;;;;;;;;;;4969797;28;20421;-76
2022/11/05 07:07:39;;;;;;;407.27;370.40;;;;;;;;;;4953865;28;20421;-76
2022/11/05 07:10:06;;;;;;;407.05;370.35;;;;;;;;;;4954354;28;20769;-75
2022/11/05 07:12:32;;;;;;;409.88;372.67;;;;;;;;;;4969156;28;20425;-77
2022/11/05 07:14:58;;;;;;;408.88;372.27;;;;;;;;;;4970721;28;20443;-77
2022/11/05 07:17:24;;;;;;;402.92;366.75;;;;;;;;;;4955443;28;20924;-74
2022/11/05 07:19:50;;;;;;;408.65;371.95;;;;;;;;;;4970199;28;20414;-77
2022/11/05 07:22:16;;;;;;;399.75;364.48;;;;;;;;;;4955515;28;20449;-76
2022/11/05 07:24:45;;;;;;;411.45;374.63;;;;;;;;;;4955561;28;20414;-76
2022/11/05 07:27:12;;;;;;;406.45;370.83;;;;;;;;;;4954402;28;20464;-77
2022/11/05 07:29:38;;;;;;;418.63;380.85;;;;;;;;;;4955716;28;20421;-76
2022/11/05 07:32:04;;;;;;;423.73;385.80;;;;;;;;;;4970346;28;20461;-76
2022/11/05 07:34:30;;;;;;;429.05;392.00;;;;;;;;;;4971137;28;20928;-76
2022/11/05 07:36:56;;;;;;;446.85;409.30;;;;;;;;;;4970532;28;20422;-76
2022/11/05 07:39:22;;;;;;;480.70;440.38;;;;;;;;;;4938478;29;20513;-77
2022/11/05 07:41:48;;;;;;;505.52;464.23;;;;;;;;;;4970088;28;20457;-77
2022/11/05 07:44:16;;;;;;;520.13;477.40;;;;;;;;;;4938903;29;20425;-77
2022/11/05 07:46:42;;;;;;;519.13;476.88;;;;;;;;;;4955086;28;20413;-77
2022/11/05 07:49:08;;;;;;;526.00;482.33;;;;;;;;;;4955429;28;20425;-76
2022/11/05 07:51:34;;;;;;;520.03;477.65;;;;;;;;;;4955190;28;20406;-77
2022/11/05 07:54:00;;;;;;;528.20;484.02;;;;;;;;;;4970361;28;20444;-77
2022/11/05 07:56:26;;;;;;;527.17;483.98;;;;;;;;;;4955121;28;20422;-76
2022/11/05 07:58:52;;;;;;;528.25;485.25;;;;;;;;;;4968775;28;20417;-77
2022/11/05 08:01:18;;;;;;;538.60;493.45;;;;;;;;;;4969696;28;20414;-76
2022/11/05 08:03:44;;;;;;;545.80;500.80;;;;;;;;;;4967796;28;20453;-77
2022/11/05 08:06:10;;;;;;;552.05;506.55;;;;;;;;;;4968081;28;20418;-77
2022/11/05 08:08:36;;;;;;;556.10;511.45;;;;;;;;;;4954909;28;20472;-76
2022/11/05 08:11:03;;;;;;;574.17;527.75;;;;;;;;;;4954077;28;20459;-77
2022/11/05 08:13:30;;;;;;;589.20;541.95;;;;;;;;;;4953703;28;20414;-77
2022/11/05 08:15:56;;;;;;;602.50;554.83;;;;;;;;;;4969459;28;20769;-79
2022/11/05 08:18:22;;;;;;;600.45;553.85;;;;;;;;;;4969584;28;20457;-79
2022/11/05 08:20:48;;;;;;;602.77;555.73;;;;;;;;;;4969695;28;20460;-79
2022/11/05 08:23:14;;;;;;;603.92;556.65;;;;;;;;;;4970025;28;20504;-79
2022/11/05 08:25:40;;;;;;;605.72;558.38;;;;;;;;;;4968752;28;20497;-80
2022/11/05 08:28:08;;;;;;;608.72;561.15;;;;;;;;;;4969354;28;20410;-78
2022/11/05 08:30:34;;;;;;;607.10;559.58;;;;;;;;;;4968359;28;20466;-81
2022/11/05 08:33:05;;;;;;;621.17;572.15;;;;;;;;;;4967058;28;20426;-81
2022/11/05 08:35:31;;;;;;;614.00;566.03;;;;;;;;;;4968518;28;20775;-83
2022/11/05 08:37:57;;;;;;;623.67;573.63;;;;;;;;;;4968368;28;20502;-83
2022/11/05 08:40:24;;;;;;;622.47;572.53;;;;;;;;;;4936905;29;20421;-84
2022/11/05 08:42:51;;;;;;;626.35;576.13;;;;;;;;;;4968610;28;20410;-83
2022/11/05 08:45:17;;;;;;;631.67;581.15;;;;;;;;;;4968618;28;20417;-80
2022/11/05 08:47:43;;;;;;;634.50;584.05;;;;;;;;;;4968123;28;20723;-78
2022/11/05 08:50:09;;;;;;;648.58;596.33;;;;;;;;;;4968184;28;20428;-82
2022/11/05 08:52:35;;;;;;;649.25;596.72;;;;;;;;;;4967913;28;20422;-80
2022/11/05 08:55:01;;;;;;;655.50;603.10;;;;;;;;;;4967759;28;20433;-82
2022/11/05 08:57:27;;;;;;;649.40;597.80;;;;;;;;;;4968848;28;20422;-82
2022/11/05 08:59:53;;;;;;;665.22;610.75;;;;;;;;;;4968623;28;20429;-81
2022/11/05 09:02:19;;;;;;;667.92;613.17;;;;;;;;;;4968812;28;20460;-81
2022/11/05 09:04:45;;;;;;;680.10;623.90;;;;;;;;;;4968447;28;20481;-81
2022/11/05 09:07:11;;;;;;;676.10;620.80;;;;;;;;;;4952803;28;20413;-81
2022/11/05 09:09:37;;;;;;;667.10;616.30;;;;;;;;;;4968894;28;20453;-81
2022/11/05 09:12:03;;;;;;;677.25;625.45;;;;;;;;;;4952845;28;20448;-82
2022/11/05 09:14:30;;;;;;;679.92;627.72;;;;;;;;;;4968482;28;20437;-81
2022/11/05 09:16:56;;;;;;;682.80;629.42;;;;;;;;;;4952617;28;20780;-80
2022/11/05 09:19:22;;;;;;;679.28;625.97;;;;;;;;;;4969469;28;20436;-81
2022/11/05 09:21:48;;;;;;;683.15;627.10;;;;;;;;;;4968773;28;20474;-81
2022/11/05 09:24:14;;;;;;;682.50;626.22;;;;;;;;;;4969066;28;20425;-81
2022/11/05 09:26:40;;;;;;;678.63;623.63;;;;;;;;;;4968518;28;20418;-80
2022/11/05 09:29:06;;;;;;;680.28;624.30;;;;;;;;;;4968288;28;20742;-84
2022/11/05 09:31:32;;;;;;;674.33;617.85;;;;;;;;;;4968008;28;20925;-81
2022/11/05 09:33:58;;;;;;;675.05;618.42;;;;;;;;;;4936741;29;20465;-82
2022/11/05 09:36:24;;;;;;;673.50;616.30;;;;;;;;;;4968198;28;20916;-85
2022/11/05 09:38:50;;;;;;;675.93;619.37;;;;;;;;;;4968207;28;20417;-82
2022/11/05 09:41:21;;;;;;;679.35;622.90;;;;;;;;;;4952147;28;20461;-82
2022/11/05 09:43:49;;;;;;;681.05;624.25;;;;;;;;;;4967941;28;20437;-82
2022/11/05 09:46:26;;;;;;;679.60;622.55;;;;;;;;;;4968314;28;20445;-82
2022/11/05 09:48:54;;;;;;;682.83;625.33;;;;;;;;;;4968106;28;25147;-82
2022/11/05 09:51:21;;;;;;;688.90;631.25;;;;;;;;;;4967839;28;20928;-82
2022/11/05 09:53:47;;;;;;;689.08;631.97;;;;;;;;;;4968053;28;20430;-82
2022/11/05 09:56:30;;;;;;;696.28;638.47;;;;;;;;;;4967692;28;20422;-82
2022/11/05 09:59:15;;;;;;;701.22;643.47;;;;;;;;;;4968345;28;25125;-82
2022/11/05 10:01:42;;;;;;;696.25;636.38;;;;;;;;;;4968190;28;25114;-82
2022/11/05 10:04:10;;;;;;;705.67;645.17;;;;;;;;;;4968126;28;20593;-81
2022/11/05 10:06:41;;;;;;;709.40;650.08;;;;;;;;;;4968554;28;20465;-82
2022/11/05 10:09:11;;;;;;;714.15;653.85;;;;;;;;;;4968174;28;20902;-82
2022/11/05 10:11:43;;;;;;;715.50;655.53;;;;;;;;;;4968263;28;20501;-82
2022/11/05 10:14:42;;;;;;;724.58;664.38;;;;;;;;;;4967449;28;20438;-82
2022/11/05 10:17:21;;;;;;;726.97;666.20;;;;;;;;;;4951058;29;20413;-82
2022/11/05 10:19:49;;;;;;;729.03;668.13;;;;;;;;;;4968320;28;25174;-83
2022/11/05 10:22:16;;;;;;;736.78;674.90;;;;;;;;;;4973826;28;20432;-83
2022/11/05 10:24:45;;;;;;;743.03;682.13;;;;;;;;;;4974642;28;20421;-82
2022/11/05 10:27:16;;;;;;;749.30;687.55;;;;;;;;;;4974195;28;20437;-81
2022/11/05 10:29:42;;;;;;;746.25;684.10;;;;;;;;;;4974689;28;20530;-82
2022/11/05 10:32:10;;;;;;;752.90;690.93;;;;;;;;;;4973878;28;20420;-82
2022/11/05 10:34:37;;;;;;;753.10;691.00;;;;;;;;;;4974076;28;20433;-82
2022/11/05 10:37:04;;;;;;;757.08;695.13;;;;;;;;;;4974186;28;20450;-81
2022/11/05 10:39:31;;;;;;;754.88;692.70;;;;;;;;;;4974730;28;20765;-82
2022/11/05 10:42:05;;;;;;;753.28;691.17;;;;;;;;;;4973722;28;20409;-82
2022/11/05 10:44:32;;;;;;;753.40;691.20;;;;;;;;;;4974352;28;20521;-81
2022/11/05 10:47:13;;;;;;;750.15;688.22;;;;;;;;;;4974008;28;20418;-82
2022/11/05 10:49:48;;;;;;;751.13;689.22;;;;;;;;;;4974224;28;25190;-81
2022/11/05 10:52:19;;;;;;;750.20;688.35;;;;;;;;;;4957522;28;25109;-81
2022/11/05 10:54:46;;;;;;;747.88;684.65;;;;;;;;;;4973869;28;20433;-81
2022/11/05 10:57:27;;;;;;;743.88;681.67;;;;;;;;;;4956984;28;20932;-81
2022/11/05 10:59:53;;;;;;;744.38;682.22;;;;;;;;;;4973800;28;25100;-82
2022/11/05 11:02:23;;;;;;;750.67;688.08;;;;;;;;;;4973565;28;20422;-82
2022/11/05 11:04:53;;;;;;;745.42;683.28;;;;;;;;;;4974180;28;20465;-82
2022/11/05 11:07:22;;;;;;;745.92;683.30;;;;;;;;;;4973952;28;20429;-81
2022/11/05 11:09:49;;;;;;;747.78;685.28;;;;;;;;;;4974404;28;20954;-81
2022/11/05 11:12:20;;;;;;;748.13;685.30;;;;;;;;;;4973375;28;21127;-81
2022/11/05 11:15:04;;;;;;;750.80;686.55;;;;;;;;;;4958602;28;20430;-82
2022/11/05 11:17:31;;;;;;;744.08;679.85;;;;;;;;;;4973305;28;25182;-87
2022/11/05 11:20:16;;;;;;;745.45;680.63;;;;;;;;;;4958718;28;20441;-83
2022/11/05 11:22:42;;;;;;;744.95;680.75;;;;;;;;;;4973897;28;20513;-84
2022/11/05 11:25:23;;;;;;;746.35;681.55;;;;;;;;;;4972984;28;20414;-78
2022/11/05 11:27:49;;;;;;;743.63;678.70;;;;;;;;;;4973355;28;25096;-79
2022/11/05 11:30:17;;;;;;;746.25;681.15;;;;;;;;;;4956122;29;20924;-80
2022/11/05 11:32:43;;;;;;;750.75;686.25;;;;;;;;;;4954178;28;20895;-80
2022/11/05 11:35:19;;;;;;;752.55;687.60;;;;;;;;;;4968803;28;20496;-79
2022/11/05 11:37:45;;;;;;;748.33;683.73;;;;;;;;;;4954332;28;25154;-79
2022/11/05 11:40:16;;;;;;;746.50;681.60;;;;;;;;;;4969888;28;20417;-79
2022/11/05 11:42:47;;;;;;;742.33;677.85;;;;;;;;;;4969506;28;20765;-80
2022/11/05 11:45:27;;;;;;;741.75;677.05;;;;;;;;;;4954471;28;20428;-79
2022/11/05 11:47:54;;;;;;;731.70;667.50;;;;;;;;;;4969377;28;25133;-80
2022/11/05 11:50:40;;;;;;;735.92;671.60;;;;;;;;;;4969401;28;20418;-80
2022/11/05 11:53:16;;;;;;;731.65;667.75;;;;;;;;;;4952766;29;25103;-81
2022/11/05 11:55:58;;;;;;;728.37;664.13;;;;;;;;;;4969388;28;25165;-80
2022/11/05 11:58:43;;;;;;;724.65;660.40;;;;;;;;;;4968762;28;20404;-81
2022/11/05 12:01:21;;;;;;;722.58;658.88;;;;;;;;;;4968723;28;20437;-82
2022/11/05 12:03:51;;;;;;;716.78;653.17;;;;;;;;;;4968512;28;25218;-81
2022/11/05 12:06:30;;;;;;;713.17;649.77;;;;;;;;;;4968586;28;20965;-82
2022/11/05 12:09:05;;;;;;;710.70;647.10;;;;;;;;;;4968560;28;25132;-80
2022/11/05 12:11:41;;;;;;;708.28;644.63;;;;;;;;;;4969173;28;20484;-80
2022/11/05 12:14:23;;;;;;;711.57;647.40;;;;;;;;;;4967409;28;20439;-80
2022/11/05 12:16:55;;;;;;;702.55;638.85;;;;;;;;;;4968133;28;25152;-82
2022/11/05 12:19:31;;;;;;;701.22;637.38;;;;;;;;;;4967168;28;20458;-82
2022/11/05 12:22:00;;;;;;;698.10;634.55;;;;;;;;;;4967875;28;20442;-82
2022/11/05 12:24:55;;;;;;;699.10;635.60;;;;;;;;;;4968248;28;20538;-80
2022/11/05 12:27:24;;;;;;;697.97;634.17;;;;;;;;;;4951262;29;25112;-81
2022/11/05 12:30:02;;;;;;;696.17;632.40;;;;;;;;;;4967912;28;20497;-76
2022/11/05 12:32:47;;;;;;;702.30;638.72;;;;;;;;;;4952121;28;25160;-80
2022/11/05 12:35:14;;;;;;;696.60;633.70;;;;;;;;;;4967092;28;20500;-82
2022/11/05 12:37:59;;;;;;;695.28;631.65;;;;;;;;;;4968128;28;20460;-82
2022/11/05 12:40:25;;;;;;;692.60;629.10;;;;;;;;;;4968802;28;20407;-82
2022/11/05 12:43:30;;;;;;;684.67;620.58;;;;;;;;;;4967590;28;20434;-81
2022/11/05 12:46:03;;;;;;;686.20;622.22;;;;;;;;;;4919286;29;20468;-81
2022/11/05 12:48:32;;;;;;;684.25;620.45;;;;;;;;;;4934693;29;20508;-81
2022/11/05 12:51:04;;;;;;;677.83;613.85;;;;;;;;;;4943204;29;20516;-84
2022/11/05 12:53:45;;;;;;;670.03;606.13;;;;;;;;;;4969166;28;20426;-83
2022/11/05 12:56:35;;;;;;;664.60;600.38;;;;;;;;;;4968000;28;20477;-82
2022/11/05 12:59:15;;;;;;;663.45;599.55;;;;;;;;;;4952177;29;20426;-79
2022/11/05 13:01:44;;;;;;;657.38;593.28;;;;;;;;;;4969430;28;21019;-79
2022/11/05 13:04:29;;;;;;;660.85;596.67;;;;;;;;;;4966916;28;20973;-78
2022/11/05 13:06:56;;;;;;;655.13;591.08;;;;;;;;;;4951981;28;20417;-85
2022/11/05 13:09:25;;;;;;;656.75;592.95;;;;;;;;;;4966846;28;20434;-83
2022/11/05 13:11:53;;;;;;;652.33;588.97;;;;;;;;;;4968385;28;20428;-81
2022/11/05 13:14:21;;;;;;;659.08;595.38;;;;;;;;;;4966734;28;20434;-87
2022/11/05 13:16:50;;;;;;;659.45;595.85;;;;;;;;;;4967093;28;20461;-84
2022/11/05 13:19:34;;;;;;;662.75;598.75;;;;;;;;;;4966573;28;20445;-85
2022/11/05 13:22:08;;;;;;;660.20;596.25;;;;;;;;;;4966509;28;20429;-82
2022/11/05 13:24:39;;;;;;;663.72;600.25;;;;;;;;;;4966867;28;25097;-86
2022/11/05 13:27:20;;;;;;;665.40;601.40;;;;;;;;;;4967060;28;20502;-86
2022/11/05 13:29:51;;;;;;;665.47;602.03;;;;;;;;;;4967013;28;20410;-87
2022/11/05 13:32:36;;;;;;;667.17;603.07;;;;;;;;;;4966382;28;20573;-85
2022/11/05 13:35:03;;;;;;;669.15;605.13;;;;;;;;;;4966175;28;25101;-87
2022/11/05 13:40:32;;;;;;;667.50;604.10;;;;;;;;;;4966226;28;20508;-85
2022/11/05 13:43:05;;;;;;;667.83;604.25;;;;;;;;;;4966137;28;20739;-88
2022/11/05 13:45:49;;;;;;;669.67;605.85;;;;;;;;;;4967166;28;20490;-83
2022/11/05 13:48:15;;;;;;;669.50;605.67;;;;;;;;;;4967325;28;20458;-83
2022/11/05 13:50:45;;;;;;;669.20;605.30;;;;;;;;;;4967186;28;20437;-83
2022/11/05 13:53:17;;;;;;;668.53;604.53;;;;;;;;;;4966741;28;20635;-83
2022/11/05 13:55:54;;;;;;;668.30;603.90;;;;;;;;;;4965739;28;20445;-82
2022/11/05 13:58:39;;;;;;;669.83;605.33;;;;;;;;;;4950117;28;20929;-82
2022/11/05 14:01:24;;;;;;;664.60;600.17;;;;;;;;;;4966414;28;20466;-83
2022/11/05 14:03:52;;;;;;;667.65;603.35;;;;;;;;;;4951195;28;20416;-83
2022/11/05 14:06:50;;;;;;;668.30;604.20;;;;;;;;;;4951096;28;20961;-84
2022/11/05 14:09:19;;;;;;;663.80;599.72;;;;;;;;;;4949905;29;20421;-84
2022/11/05 14:11:50;;;;;;;666.33;601.83;;;;;;;;;;4967352;28;20444;-84
2022/11/05 14:14:18;;;;;;;665.95;601.63;;;;;;;;;;4951772;28;20437;-83
2022/11/05 14:16:54;;;;;;;666.87;603.73;;;;;;;;;;4951072;28;20410;-84
2022/11/05 14:19:28;;;;;;;665.28;601.70;;;;;;;;;;4965777;28;20460;-86
2022/11/05 14:21:55;;;;;;;661.70;598.13;;;;;;;;;;4967208;28;20418;-84
2022/11/05 14:24:21;;;;;;;660.67;597.28;;;;;;;;;;4967262;28;20496;-82
2022/11/05 14:27:02;;;;;;;655.30;591.55;;;;;;;;;;4951910;28;20422;-83
2022/11/05 14:29:37;;;;;;;656.78;592.38;;;;;;;;;;4951850;28;20418;-83
2022/11/05 14:32:04;;;;;;;657.45;593.45;;;;;;;;;;4967308;28;20480;-83
2022/11/05 14:34:42;;;;;;;657.10;594.90;;;;;;;;;;4967352;28;20442;-82
2022/11/05 14:37:11;;;;;;;654.72;591.55;;;;;;;;;;4967386;28;20517;-83
2022/11/05 14:39:37;;;;;;;656.70;593.78;;;;;;;;;;4966874;28;20418;-83
2022/11/05 14:42:22;;;;;;;653.45;590.63;;;;;;;;;;4966985;28;20769;-83
2022/11/05 14:44:57;;;;;;;651.53;588.83;;;;;;;;;;4951951;28;25188;-83
2022/11/05 14:47:25;;;;;;;648.78;585.83;;;;;;;;;;4966435;28;25223;-83
2022/11/05 14:49:54;;;;;;;650.93;587.73;;;;;;;;;;4967110;28;20765;-84